Time;durP1;ratioP1;P1;durP2;ratioP2;P2;SDS_P1;SDS_P2;PMS_P1;PMS_P2;Temp;Humidity;BMP_temperature;BMP_pressure;BME280_temperature;BME280_humidity;BME280_pressure;Samples;Min_cycle;Max_cycle;Signal;HPM_P1;HPM_P2
2022/11/25 00:01:16;;;;;;;16.73;2.03;;;7.70;99.90;;;;;;5110155;27;20437;-82
2022/11/25 00:03:43;;;;;;;20.02;2.63;;;7.60;99.90;;;;;;5112805;27;20047;-82
2022/11/25 00:06:09;;;;;;;11.48;2.42;;;7.60;99.90;;;;;;5146593;27;20338;-82
2022/11/25 00:08:35;;;;;;;12.27;2.35;;;7.70;99.90;;;;;;5128327;27;20054;-82
2022/11/25 00:11:02;;;;;;;11.57;2.17;;;8.30;99.90;;;;;;5148439;27;20049;-82
2022/11/25 00:13:27;;;;;;;13.35;2.80;;;7.70;99.90;;;;;;5146279;27;20034;-82
2022/11/25 00:15:53;;;;;;;16.98;2.67;;;7.70;99.90;;;;;;5130533;27;20464;-82
2022/11/25 00:18:19;;;;;;;13.15;2.65;;;8.20;99.90;;;;;;5145035;27;20102;-82
2022/11/25 00:20:44;;;;;;;15.13;2.53;;;7.70;99.90;;;;;;5129641;27;20038;-83
2022/11/25 00:23:10;;;;;;;13.98;2.50;;;8.50;99.90;;;;;;5145912;27;20130;-82
2022/11/25 00:25:36;;;;;;;22.35;2.67;;;7.70;99.90;;;;;;5147351;27;20058;-82
2022/11/25 00:28:01;;;;;;;17.45;2.45;;;7.80;99.90;;;;;;5111916;27;20092;-82
2022/11/25 00:30:27;;;;;;;21.52;3.83;;;7.80;99.90;;;;;;5145924;27;20545;-82
2022/11/25 00:32:53;;;;;;;16.38;2.42;;;7.70;99.90;;;;;;5148895;27;20050;-82
2022/11/25 00:35:20;;;;;;;11.57;2.13;;;8.30;99.90;;;;;;5125821;27;20486;-82
2022/11/25 00:37:45;;;;;;;12.40;2.50;;;7.80;99.90;;;;;;5147926;27;20050;-82
2022/11/25 00:40:12;;;;;;;22.02;2.65;;;7.80;99.90;;;;;;5127022;27;20042;-82
2022/11/25 00:45:21;;;;;;;17.25;3.38;;;9.00;99.90;;;;;;5129348;27;20076;-82
2022/11/25 00:47:47;;;;;;;10.00;2.40;;;8.10;99.90;;;;;;5126558;27;20046;-82
2022/11/25 00:50:13;;;;;;;16.92;2.58;;;7.90;99.90;;;;;;5130098;27;20042;-82
2022/11/25 00:52:38;;;;;;;16.20;4.32;;;7.90;99.90;;;;;;5126292;27;20050;-82
2022/11/25 00:55:04;;;;;;;13.95;3.20;;;7.90;99.90;;;;;;5112560;27;20086;-82
2022/11/25 00:57:30;;;;;;;13.85;3.10;;;8.00;99.90;;;;;;5126883;27;20125;-82
2022/11/25 00:59:56;;;;;;;18.52;3.60;;;8.60;99.90;;;;;;5111368;27;20050;-82
2022/11/25 01:02:21;;;;;;;7.53;2.38;;;8.00;99.90;;;;;;5128817;27;20399;-82
2022/11/25 01:04:47;;;;;;;16.35;3.58;;;8.70;99.90;;;;;;5110176;27;20046;-82
2022/11/25 01:07:13;;;;;;;14.65;2.72;;;8.70;99.90;;;;;;5148503;27;20493;-82
2022/11/25 01:09:39;;;;;;;22.15;4.15;;;8.10;99.90;;;;;;5144793;27;20038;-82
2022/11/25 01:12:05;;;;;;;17.05;3.30;;;8.80;99.90;;;;;;5129078;27;20631;-82
2022/11/25 01:14:31;;;;;;;12.52;3.47;;;7.90;99.90;;;;;;5144942;27;20042;-82
2022/11/25 01:16:56;;;;;;;18.10;2.83;;;8.70;99.90;;;;;;5146858;27;20072;-82
2022/11/25 01:19:23;;;;;;;15.48;2.85;;;8.00;99.90;;;;;;5128078;27;20047;-82
2022/11/25 01:21:49;;;;;;;13.65;4.18;;;7.90;99.90;;;;;;5109537;27;20507;-82
2022/11/25 01:24:15;;;;;;;19.02;3.17;;;8.70;99.90;;;;;;5128898;27;20078;-82
2022/11/25 01:26:42;;;;;;;14.95;2.70;;;8.30;99.90;;;;;;5125527;27;20039;-83
2022/11/25 01:29:15;;;;;;;16.85;2.85;;;8.00;99.90;;;;;;5111678;27;20057;-83
2022/11/25 01:31:41;;;;;;;21.57;3.37;;;8.50;99.90;;;;;;5109183;27;20042;-82
2022/11/25 01:34:18;;;;;;;14.18;3.10;;;8.70;99.90;;;;;;5094554;27;20459;-82
2022/11/25 01:36:44;;;;;;;12.63;2.80;;;8.00;99.90;;;;;;5127849;27;20051;-83
2022/11/25 01:39:19;;;;;;;15.52;3.17;;;8.00;99.90;;;;;;5109393;27;20050;-83
2022/11/25 01:41:46;;;;;;;14.25;3.63;;;7.90;99.90;;;;;;5111700;27;20429;-81
2022/11/25 01:44:13;;;;;;;15.60;3.78;;;7.90;99.90;;;;;;5108320;27;20474;-83
2022/11/25 01:46:56;;;;;;;14.50;2.58;;;7.90;99.90;;;;;;5130127;27;20111;-80
2022/11/25 01:49:56;;;;;;;12.90;2.63;;;7.80;99.90;;;;;;5131316;27;20034;-83
2022/11/25 01:52:29;;;;;;;17.67;2.97;;;7.80;99.90;;;;;;5130257;27;20074;-83
2022/11/25 01:55:00;;;;;;;;;;;7.80;99.90;;;;;;5133230;27;20537;-81
2022/11/25 01:57:36;;;;;;;19.42;3.10;;;7.80;99.90;;;;;;5113205;27;19922;-81
2022/11/25 02:00:05;;;;;;;20.15;2.78;;;7.80;99.90;;;;;;5114716;27;20046;-81
2022/11/25 02:02:31;;;;;;;12.30;3.35;;;7.80;99.90;;;;;;5115150;27;20035;-83
2022/11/25 02:04:57;;;;;;;17.75;3.20;;;7.80;99.90;;;;;;5112787;27;20163;-83
2022/11/25 02:07:40;;;;;;;16.05;2.83;;;7.80;99.90;;;;;;5132765;27;20082;-83
2022/11/25 02:10:20;;;;;;;17.10;3.13;;;7.80;99.90;;;;;;5129111;27;20082;-81
2022/11/25 02:12:46;;;;;;;16.25;2.70;;;7.80;99.90;;;;;;5114399;27;20514;-81
2022/11/25 02:15:14;;;;;;;14.93;3.45;;;7.80;99.90;;;;;;5114125;27;20367;-80
2022/11/25 02:17:41;;;;;;;22.33;3.00;;;8.30;99.90;;;;;;5129964;27;20043;-80
2022/11/25 02:20:21;;;;;;;17.20;3.15;;;7.90;99.90;;;;;;5114701;27;20474;-80
2022/11/25 02:23:13;;;;;;;14.20;3.47;;;7.90;99.90;;;;;;5112388;27;20125;-83
2022/11/25 02:25:40;;;;;;;15.15;2.55;;;7.90;99.90;;;;;;5114270;27;20121;-81
2022/11/25 02:28:11;;;;;;;20.52;3.58;;;7.90;99.90;;;;;;5130507;27;20520;-81
2022/11/25 02:30:37;;;;;;;13.73;3.00;;;8.30;99.90;;;;;;5129278;27;20127;-80
2022/11/25 02:33:02;;;;;;;13.70;3.20;;;7.70;99.90;;;;;;5132342;27;20051;-80
2022/11/25 02:35:34;;;;;;;18.23;2.60;;;7.90;99.90;;;;;;5094916;27;20042;-83
2022/11/25 02:38:07;;;;;;;16.05;3.00;;;7.90;99.90;;;;;;5114447;27;20523;-83
2022/11/25 02:41:06;;;;;;;20.67;3.53;;;8.80;99.90;;;;;;5112456;27;20038;-80
2022/11/25 02:43:32;;;;;;;20.38;3.72;;;7.90;99.90;;;;;;5111898;27;20035;-80
2022/11/25 02:46:19;;;;;;;17.88;4.25;;;7.90;99.90;;;;;;5114687;27;20076;-80
2022/11/25 02:48:45;;;;;;;18.88;3.58;;;8.10;99.90;;;;;;5129066;27;20312;-81
2022/11/25 02:51:14;;;;;;;11.65;2.78;;;7.80;99.90;;;;;;5114278;27;20414;-81
2022/11/25 02:53:40;;;;;;;15.93;3.05;;;7.80;99.90;;;;;;5112782;27;20046;-81
2022/11/25 02:56:07;;;;;;;18.58;4.50;;;7.80;99.90;;;;;;5129705;27;20052;-81
2022/11/25 02:58:33;;;;;;;16.20;2.80;;;7.80;99.90;;;;;;5113703;27;20122;-81
2022/11/25 03:00:59;;;;;;;13.63;3.35;;;7.80;99.90;;;;;;5094622;27;20133;-81
2022/11/25 03:03:25;;;;;;;15.82;3.47;;;8.90;99.90;;;;;;5114025;27;20092;-81
2022/11/25 03:05:50;;;;;;;18.90;3.38;;;7.80;99.90;;;;;;5111244;27;20042;-81
2022/11/25 03:08:16;;;;;;;16.77;2.92;;;7.80;99.90;;;;;;5113845;27;20042;-81
2022/11/25 03:10:42;;;;;;;25.85;4.65;;;7.90;99.90;;;;;;5112848;27;20039;-81
2022/11/25 03:13:09;;;;;;;15.65;3.10;;;7.90;99.90;;;;;;5129432;27;20043;-81
2022/11/25 03:15:36;;;;;;;16.77;3.42;;;7.90;99.90;;;;;;5130728;27;20047;-81
2022/11/25 03:18:03;;;;;;;20.55;5.15;;;8.50;99.90;;;;;;5127967;27;20125;-81
2022/11/25 03:20:29;;;;;;;19.30;3.30;;;7.90;99.90;;;;;;5131094;27;20053;-81
2022/11/25 03:22:55;;;;;;;15.70;3.72;;;7.90;99.90;;;;;;5110839;27;20047;-80
2022/11/25 03:25:20;;;;;;;20.52;3.25;;;8.90;99.90;;;;;;5131144;27;20043;-81
2022/11/25 03:27:46;;;;;;;26.00;4.28;;;7.90;99.90;;;;;;5111485;27;20511;-80
2022/11/25 03:30:16;;;;;;;24.58;4.47;;;7.90;99.90;;;;;;5129095;27;20054;-80
2022/11/25 03:32:42;;;;;;;22.13;3.42;;;8.00;99.90;;;;;;5113050;27;20482;-80
2022/11/25 03:35:08;;;;;;;14.75;3.58;;;8.00;99.90;;;;;;5094057;27;20039;-80
2022/11/25 03:37:34;;;;;;;26.45;3.72;;;8.00;99.90;;;;;;5130628;27;20099;-81
2022/11/25 03:40:00;;;;;;;21.02;5.88;;;8.00;99.90;;;;;;5110949;27;20046;-80
2022/11/25 03:42:26;;;;;;;16.98;3.80;;;8.00;99.90;;;;;;5112845;27;20442;-80
2022/11/25 03:44:51;;;;;;;14.00;4.22;;;8.00;99.90;;;;;;5111663;27;20450;-80
2022/11/25 03:47:17;;;;;;;14.30;3.33;;;8.00;99.90;;;;;;5111714;27;20469;-80
2022/11/25 03:49:42;;;;;;;14.63;3.78;;;8.00;99.90;;;;;;5113116;27;20042;-80
2022/11/25 03:52:08;;;;;;;15.60;4.25;;;8.60;99.90;;;;;;5093801;27;20079;-80
2022/11/25 03:54:34;;;;;;;16.13;3.42;;;8.10;99.90;;;;;;5113286;27;20042;-80
2022/11/25 03:56:59;;;;;;;14.50;4.07;;;8.30;99.90;;;;;;5127123;27;20046;-80
2022/11/25 03:59:25;;;;;;;20.60;4.70;;;8.10;99.90;;;;;;5130474;27;20046;-80
2022/11/25 04:01:51;;;;;;;17.45;4.80;;;8.10;99.90;;;;;;5110840;27;20485;-80
2022/11/25 04:04:16;;;;;;;16.58;3.42;;;8.60;99.90;;;;;;5112309;27;20472;-80
2022/11/25 04:06:42;;;;;;;16.98;3.83;;;8.10;99.90;;;;;;5111852;27;20129;-80
2022/11/25 04:09:10;;;;;;;18.25;4.15;;;8.10;99.90;;;;;;5127709;27;20062;-80
2022/11/25 04:14:21;;;;;;;19.13;4.30;;;8.10;99.90;;;;;;5127221;27;20057;-80
2022/11/25 04:16:47;;;;;;;19.50;4.78;;;8.10;99.90;;;;;;5130070;27;20043;-80
2022/11/25 04:19:13;;;;;;;21.25;5.20;;;8.10;99.90;;;;;;5111052;27;20027;-80
2022/11/25 04:21:38;;;;;;;23.92;4.95;;;9.20;99.90;;;;;;5128656;27;20042;-80
2022/11/25 04:24:04;;;;;;;18.80;4.53;;;8.10;99.90;;;;;;5112111;27;20047;-79
2022/11/25 04:26:30;;;;;;;17.27;5.22;;;8.10;99.90;;;;;;5110560;27;20043;-79
2022/11/25 04:28:56;;;;;;;16.23;4.43;;;8.80;99.90;;;;;;5130150;27;20109;-80
2022/11/25 04:31:21;;;;;;;26.98;5.78;;;8.10;99.90;;;;;;5109920;27;20045;-79
2022/11/25 04:33:47;;;;;;;21.70;5.95;;;9.20;99.90;;;;;;5129657;27;20084;-79
2022/11/25 04:36:13;;;;;;;30.90;6.47;;;8.10;99.90;;;;;;5094043;27;20098;-79
2022/11/25 04:38:38;;;;;;;21.80;5.28;;;8.20;99.90;;;;;;5111180;27;20054;-80
2022/11/25 04:41:05;;;;;;;21.08;5.25;;;9.30;99.90;;;;;;5094902;27;20104;-80
2022/11/25 04:43:30;;;;;;;17.40;4.85;;;8.10;99.90;;;;;;5110421;27;20075;-79
2022/11/25 04:45:56;;;;;;;19.73;5.32;;;8.10;99.90;;;;;;5095887;27;20046;-80
2022/11/25 04:48:22;;;;;;;25.50;5.60;;;8.10;99.90;;;;;;5093203;27;20444;-80
2022/11/25 04:50:47;;;;;;;20.08;6.53;;;8.90;99.90;;;;;;5129463;27;20039;-79
2022/11/25 04:53:13;;;;;;;16.35;4.95;;;9.10;99.90;;;;;;5109834;27;20046;-80
2022/11/25 04:55:40;;;;;;;29.75;5.70;;;8.20;99.90;;;;;;5111980;27;20041;-80
2022/11/25 04:58:05;;;;;;;20.63;6.00;;;9.00;99.90;;;;;;5110831;27;20031;-80
2022/11/25 05:00:31;;;;;;;25.38;5.85;;;8.10;99.90;;;;;;5127647;27;20038;-79
2022/11/25 05:02:57;;;;;;;21.63;6.05;;;9.20;99.90;;;;;;5112269;27;20102;-79
2022/11/25 05:05:22;;;;;;;18.73;5.32;;;8.10;99.90;;;;;;5109414;27;20050;-79
2022/11/25 05:07:48;;;;;;;16.50;5.63;;;8.20;99.90;;;;;;5095346;27;20050;-79
2022/11/25 05:10:14;;;;;;;20.75;5.30;;;8.20;99.90;;;;;;5126957;27;20092;-80
2022/11/25 05:12:40;;;;;;;17.65;5.43;;;8.20;99.90;;;;;;5111408;27;20047;-79
2022/11/25 05:15:06;;;;;;;25.15;5.80;;;8.20;99.90;;;;;;5127496;27;20027;-79
2022/11/25 05:17:33;;;;;;;25.02;5.95;;;8.20;99.90;;;;;;5127398;27;20126;-79
2022/11/25 05:19:59;;;;;;;23.50;5.47;;;9.20;99.90;;;;;;5129377;27;20035;-79
2022/11/25 05:22:30;;;;;;;16.15;6.22;;;8.20;99.90;;;;;;5113806;27;20042;-79
2022/11/25 05:24:56;;;;;;;15.85;4.95;;;8.20;99.90;;;;;;5116799;27;20058;-79
2022/11/25 05:27:22;;;;;;;27.20;7.22;;;8.20;99.90;;;;;;5096301;27;20053;-79
2022/11/25 05:29:48;;;;;;;31.13;7.07;;;8.20;99.90;;;;;;5132611;27;20493;-79
2022/11/25 05:32:15;;;;;;;23.67;6.78;;;8.80;99.90;;;;;;5114582;27;20046;-79
2022/11/25 05:34:41;;;;;;;22.60;6.80;;;8.50;99.90;;;;;;5131623;27;20046;-79
2022/11/25 05:37:08;;;;;;;23.65;6.55;;;8.20;99.90;;;;;;5115287;27;20142;-79
2022/11/25 05:39:34;;;;;;;22.63;6.22;;;8.90;99.90;;;;;;5130473;27;20050;-80
2022/11/25 05:42:00;;;;;;;19.77;6.45;;;8.20;99.90;;;;;;5116344;27;20034;-79
2022/11/25 05:44:26;;;;;;;31.90;8.65;;;8.30;99.90;;;;;;5130277;27;20155;-79
2022/11/25 05:46:52;;;;;;;28.70;7.10;;;8.20;99.90;;;;;;5132685;27;20177;-78
2022/11/25 05:49:19;;;;;;;28.85;6.75;;;8.20;99.90;;;;;;5113949;27;20497;-78
2022/11/25 05:51:46;;;;;;;21.25;6.90;;;9.20;99.90;;;;;;5131450;27;20548;-78
2022/11/25 05:54:12;;;;;;;17.13;6.03;;;8.80;99.90;;;;;;5131504;27;20042;-78
2022/11/25 05:56:38;;;;;;;24.33;6.88;;;8.10;99.90;;;;;;5112644;27;20086;-79
2022/11/25 05:59:04;;;;;;;19.80;5.97;;;8.20;99.90;;;;;;5098409;27;20046;-79
2022/11/25 06:01:30;;;;;;;18.95;6.45;;;8.20;99.90;;;;;;5129817;27;20047;-79
2022/11/25 06:04:03;;;;;;;20.98;7.60;;;8.20;99.90;;;;;;5132442;27;20050;-79
2022/11/25 06:06:29;;;;;;;;;;;8.20;99.90;;;;;;5114408;27;20122;-79
2022/11/25 06:08:55;;;;;;;22.92;6.57;;;8.20;99.90;;;;;;5114212;27;20052;-79
2022/11/25 06:11:21;;;;;;;21.60;6.55;;;8.20;99.90;;;;;;5114226;27;20413;-78
2022/11/25 06:13:47;;;;;;;22.70;6.68;;;8.20;99.90;;;;;;5130032;27;20553;-78
2022/11/25 06:16:19;;;;;;;23.75;7.22;;;8.40;99.90;;;;;;5114887;27;20121;-77
2022/11/25 06:18:45;;;;;;;19.15;6.88;;;8.20;99.90;;;;;;5130041;27;20500;-77
2022/11/25 06:21:12;;;;;;;20.85;6.32;;;8.20;99.90;;;;;;5098052;27;20034;-78
2022/11/25 06:23:39;;;;;;;22.17;6.47;;;8.20;99.90;;;;;;5113638;27;20102;-78
2022/11/25 06:26:06;;;;;;;17.33;7.20;;;8.90;99.90;;;;;;5113850;27;20042;-78
2022/11/25 06:28:33;;;;;;;21.48;6.60;;;9.30;99.90;;;;;;5131144;27;20046;-78
2022/11/25 06:31:07;;;;;;;28.73;8.00;;;8.30;99.90;;;;;;5112916;27;20039;-79
2022/11/25 06:33:33;;;;;;;20.42;7.00;;;8.40;99.90;;;;;;5131174;27;20047;-78
2022/11/25 06:36:01;;;;;;;21.02;7.22;;;8.40;99.90;;;;;;5130534;27;20458;-79
2022/11/25 06:38:27;;;;;;;19.55;6.28;;;9.00;99.90;;;;;;5113673;27;20061;-77
2022/11/25 06:40:53;;;;;;;23.73;7.28;;;8.30;99.90;;;;;;5130273;27;20046;-79
2022/11/25 06:43:18;;;;;;;24.15;6.50;;;8.30;99.90;;;;;;5112983;27;20093;-79
2022/11/25 06:45:44;;;;;;;20.88;6.57;;;8.30;99.90;;;;;;5113874;27;20035;-79
2022/11/25 06:48:10;;;;;;;19.10;7.13;;;8.30;99.90;;;;;;5112431;27;20051;-79
2022/11/25 06:50:35;;;;;;;18.02;6.88;;;9.40;99.90;;;;;;5097100;27;20127;-80
2022/11/25 06:53:01;;;;;;;15.95;6.43;;;8.40;99.90;;;;;;5112155;27;20046;-80
2022/11/25 06:55:27;;;;;;;24.13;6.75;;;9.30;99.90;;;;;;5131051;27;20533;-79
2022/11/25 06:57:52;;;;;;;18.20;6.00;;;8.40;99.90;;;;;;5130087;27;20094;-80
2022/11/25 07:00:18;;;;;;;14.88;5.32;;;8.40;99.90;;;;;;5095857;27;20067;-80
2022/11/25 07:02:44;;;;;;;22.02;6.72;;;8.40;99.90;;;;;;5113594;27;20481;-81
2022/11/25 07:05:10;;;;;;;15.40;5.65;;;9.00;99.90;;;;;;5095696;27;20050;-81
2022/11/25 07:07:36;;;;;;;16.15;5.43;;;8.40;99.90;;;;;;5097167;27;20516;-81
2022/11/25 07:10:01;;;;;;;19.45;5.32;;;8.40;99.90;;;;;;5128675;27;20561;-81
2022/11/25 07:12:29;;;;;;;19.05;6.05;;;8.40;99.90;;;;;;5113788;27;20178;-80
2022/11/25 07:14:54;;;;;;;19.85;5.65;;;8.40;99.90;;;;;;5112571;27;20374;-80
2022/11/25 07:17:20;;;;;;;21.92;5.68;;;9.00;99.90;;;;;;5113414;27;20038;-80
2022/11/25 07:19:46;;;;;;;17.92;5.40;;;8.40;99.90;;;;;;5112228;27;20470;-80
2022/11/25 07:22:11;;;;;;;17.00;6.15;;;9.20;99.90;;;;;;5111804;27;20039;-81
2022/11/25 07:24:37;;;;;;;18.60;4.72;;;8.50;99.90;;;;;;5095977;27;20042;-81
2022/11/25 07:27:05;;;;;;;16.25;5.22;;;8.70;99.90;;;;;;5111789;27;20042;-81
2022/11/25 07:29:31;;;;;;;16.85;4.55;;;8.50;99.90;;;;;;5097451;27;20042;-81
2022/11/25 07:31:56;;;;;;;19.70;5.28;;;8.50;99.90;;;;;;5111149;27;20410;-81
2022/11/25 07:34:22;;;;;;;18.30;5.05;;;8.50;99.90;;;;;;5095595;27;20057;-80
2022/11/25 07:36:49;;;;;;;12.88;4.43;;;8.50;99.90;;;;;;5095290;27;20087;-80
2022/11/25 07:39:22;;;;;;;12.10;4.43;;;9.40;99.90;;;;;;5111344;27;20054;-80
2022/11/25 07:41:48;;;;;;;;;;;8.50;99.90;;;;;;5113172;27;20050;-80
2022/11/25 07:44:14;;;;;;;17.65;4.18;;;8.50;99.90;;;;;;5109675;27;19930;-80
2022/11/25 07:46:42;;;;;;;21.20;4.72;;;8.50;99.90;;;;;;5096158;27;20043;-80
2022/11/25 07:49:11;;;;;;;16.02;4.75;;;8.60;99.90;;;;;;5111017;27;20171;-81
2022/11/25 07:51:43;;;;;;;22.33;4.93;;;8.60;99.90;;;;;;5112440;27;20114;-79
2022/11/25 07:54:11;;;;;;;10.75;3.70;;;8.60;99.90;;;;;;5111804;27;20122;-80
2022/11/25 07:56:40;;;;;;;18.60;4.45;;;8.60;99.90;;;;;;5128432;27;20070;-81
2022/11/25 07:59:07;;;;;;;8.85;3.38;;;9.50;99.90;;;;;;5112748;27;20139;-80
2022/11/25 08:01:32;;;;;;;13.30;3.75;;;8.60;99.90;;;;;;5110805;27;20634;-80
2022/11/25 08:03:58;;;;;;;10.80;3.20;;;8.60;99.90;;;;;;5130117;27;20092;-81
2022/11/25 08:06:26;;;;;;;10.00;3.40;;;8.60;99.90;;;;;;5128628;27;20043;-81
2022/11/25 08:08:54;;;;;;;11.32;3.42;;;8.60;99.90;;;;;;5111865;27;20034;-80
2022/11/25 08:11:28;;;;;;;12.15;3.20;;;8.90;99.90;;;;;;5128942;27;20070;-81
2022/11/25 08:13:55;;;;;;;13.13;3.20;;;8.60;99.90;;;;;;5128269;27;20042;-80
2022/11/25 08:16:25;;;;;;;10.23;3.17;;;8.60;99.90;;;;;;5095683;27;20447;-80
2022/11/25 08:18:50;;;;;;;12.10;3.13;;;8.80;99.90;;;;;;5127528;27;20482;-80
2022/11/25 08:21:17;;;;;;;7.68;2.20;;;8.90;99.90;;;;;;5129155;27;20051;-81
2022/11/25 08:23:46;;;;;;;13.93;3.33;;;9.10;99.90;;;;;;5128126;27;20520;-80
2022/11/25 08:26:15;;;;;;;8.13;2.45;;;9.50;99.90;;;;;;5110748;27;20050;-80
2022/11/25 08:28:41;;;;;;;10.45;2.33;;;8.50;99.90;;;;;;5128544;27;20374;-79
2022/11/25 08:31:10;;;;;;;11.32;3.25;;;9.40;99.90;;;;;;5110411;27;20500;-81
2022/11/25 08:33:36;;;;;;;7.90;2.92;;;8.60;99.90;;;;;;5129932;27;20085;-81
2022/11/25 08:36:03;;;;;;;10.95;3.65;;;8.50;99.90;;;;;;5110399;27;20393;-82
2022/11/25 08:38:28;;;;;;;7.53;2.63;;;8.50;99.90;;;;;;5128903;27;20051;-80
2022/11/25 08:40:55;;;;;;;10.65;2.97;;;8.50;99.90;;;;;;5127320;27;20126;-81
2022/11/25 08:43:21;;;;;;;8.98;3.03;;;8.50;99.90;;;;;;5094214;27;20482;-82
2022/11/25 08:45:47;;;;;;;14.75;3.33;;;8.50;99.90;;;;;;5111177;27;20045;-83
2022/11/25 08:48:15;;;;;;;9.63;2.92;;;8.50;99.90;;;;;;5110134;27;20057;-81
2022/11/25 08:50:45;;;;;;;9.15;2.67;;;8.50;99.90;;;;;;5095254;27;20119;-82
2022/11/25 08:53:11;;;;;;;9.25;2.47;;;8.60;99.90;;;;;;5127560;27;20039;-81
2022/11/25 08:55:38;;;;;;;11.30;3.53;;;8.60;99.90;;;;;;5094306;27;20069;-81
2022/11/25 08:58:05;;;;;;;5.72;2.45;;;8.60;99.90;;;;;;5110745;27;20046;-82
2022/11/25 09:00:30;;;;;;;12.30;3.35;;;8.60;99.90;;;;;;5077262;27;20427;-81
2022/11/25 09:02:56;;;;;;;8.65;2.40;;;8.70;99.90;;;;;;5111286;27;20108;-81
2022/11/25 09:05:22;;;;;;;11.82;2.45;;;8.60;99.90;;;;;;5127336;27;20042;-81
2022/11/25 09:07:47;;;;;;;9.05;3.17;;;8.70;99.90;;;;;;5094778;27;20046;-81
2022/11/25 09:10:16;;;;;;;14.02;2.45;;;8.70;99.90;;;;;;5110110;27;20561;-81
2022/11/25 09:12:42;;;;;;;10.65;3.55;;;8.80;99.90;;;;;;5128572;27;20106;-81
2022/11/25 09:15:08;;;;;;;13.43;3.55;;;8.80;99.90;;;;;;5110463;27;20043;-81
2022/11/25 09:17:36;;;;;;;8.35;2.28;;;8.80;99.90;;;;;;5127554;27;20121;-82
2022/11/25 09:20:04;;;;;;;11.52;3.22;;;9.10;99.90;;;;;;5128049;27;20128;-81
2022/11/25 09:22:30;;;;;;;7.85;2.33;;;8.90;99.90;;;;;;5110446;27;20070;-81
2022/11/25 09:24:56;;;;;;;12.38;3.42;;;9.30;99.90;;;;;;5095054;27;20402;-82
2022/11/25 09:27:21;;;;;;;11.43;2.85;;;8.90;99.90;;;;;;5092763;27;20038;-81
2022/11/25 09:29:47;;;;;;;15.25;3.15;;;8.90;99.90;;;;;;5111895;27;20105;-80
2022/11/25 09:32:13;;;;;;;16.25;3.15;;;9.00;99.90;;;;;;5110534;27;20090;-80
2022/11/25 09:34:39;;;;;;;10.93;2.92;;;9.90;99.90;;;;;;5110291;27;20090;-80
2022/11/25 09:37:04;;;;;;;8.88;2.65;;;9.10;99.90;;;;;;5127828;27;20073;-81
2022/11/25 09:39:31;;;;;;;8.60;3.15;;;9.10;99.90;;;;;;5109684;27;20145;-81
2022/11/25 09:47:57;;;;;;;12.88;3.10;;;9.30;99.90;;;;;;5127128;27;20072;-81
2022/11/25 09:50:41;;;;;;;9.23;2.80;;;9.30;99.90;;;;;;5127795;27;20081;-81
2022/11/25 09:53:22;;;;;;;7.70;2.28;;;9.40;99.90;;;;;;5110309;27;20526;-81
2022/11/25 09:55:50;;;;;;;9.57;2.40;;;9.40;99.90;;;;;;5127645;27;20043;-82
2022/11/25 09:58:31;;;;;;;11.50;2.85;;;9.50;99.90;;;;;;5110055;27;20147;-82
2022/11/25 10:00:59;;;;;;;10.32;2.58;;;9.50;99.90;;;;;;5126599;27;20043;-81
2022/11/25 10:03:40;;;;;;;9.90;2.35;;;9.60;99.90;;;;;;5128073;27;20046;-80
2022/11/25 10:06:25;;;;;;;8.65;2.53;;;9.60;99.90;;;;;;5110438;27;20061;-80
2022/11/25 10:08:57;;;;;;;13.43;2.60;;;9.70;99.90;;;;;;5130819;27;20054;-80
2022/11/25 10:11:29;;;;;;;10.02;3.08;;;9.70;99.90;;;;;;5131353;27;20038;-81
2022/11/25 10:14:10;;;;;;;10.75;2.95;;;9.80;99.90;;;;;;5130809;27;20087;-81
2022/11/25 10:16:50;;;;;;;13.95;2.38;;;9.90;99.90;;;;;;5114593;27;20046;-80
2022/11/25 10:19:49;;;;;;;8.30;2.30;;;9.90;99.90;;;;;;5130803;27;20038;-81
2022/11/25 10:22:23;;;;;;;8.77;2.22;;;9.90;99.90;;;;;;5130529;27;20042;-81
2022/11/25 10:24:50;;;;;;;8.65;1.88;;;10.00;99.90;;;;;;5131764;27;20133;-80
2022/11/25 10:27:59;;;;;;;11.27;2.30;;;10.00;99.90;;;;;;5112844;27;20091;-81
2022/11/25 10:30:48;;;;;;;7.22;1.80;;;10.10;99.90;;;;;;5101216;27;20051;-81
2022/11/25 10:33:20;;;;;;;9.25;2.08;;;10.70;99.90;;;;;;5131043;27;20103;-81
2022/11/25 10:35:53;;;;;;;15.23;2.63;;;10.20;99.90;;;;;;5112507;27;20046;-81
2022/11/25 10:38:26;;;;;;;9.20;2.30;;;10.20;99.90;;;;;;5114202;27;20049;-81
2022/11/25 10:40:53;;;;;;;8.82;2.00;;;10.30;99.90;;;;;;5130564;27;20094;-81
2022/11/25 10:43:19;;;;;;;7.90;2.10;;;10.40;99.90;;;;;;5112648;27;20043;-81
2022/11/25 10:46:15;;;;;;;6.82;1.73;;;10.40;99.90;;;;;;5131169;27;20038;-81
2022/11/25 10:49:04;;;;;;;19.05;4.00;;;10.40;99.90;;;;;;5112705;27;20481;-81
2022/11/25 10:51:44;;;;;;;8.80;2.30;;;10.50;99.90;;;;;;5113298;27;20125;-79
2022/11/25 10:54:20;;;;;;;8.40;2.20;;;10.50;99.90;;;;;;5112879;27;20115;-80
2022/11/25 10:57:03;;;;;;;11.95;2.15;;;10.70;99.90;;;;;;5129514;27;20042;-80
2022/11/25 10:59:33;;;;;;;;;;;10.60;99.90;;;;;;5149908;27;20106;-80
2022/11/25 11:02:23;;;;;;;9.15;2.22;;;10.60;99.90;;;;;;5148215;27;20011;-81
2022/11/25 11:04:56;;;;;;;7.80;2.10;;;10.60;99.90;;;;;;5129731;27;20051;-80
2022/11/25 11:07:24;;;;;;;14.15;2.67;;;10.60;99.90;;;;;;5130296;27;20187;-80
2022/11/25 11:09:51;;;;;;;12.48;2.17;;;10.60;99.90;;;;;;5147002;27;20046;-79
2022/11/25 11:12:24;;;;;;;8.80;1.83;;;10.50;99.90;;;;;;5114002;27;20114;-80
2022/11/25 11:15:13;;;;;;;7.53;1.80;;;10.60;99.90;;;;;;5148604;27;20084;-80
2022/11/25 11:17:38;;;;;;;11.45;2.25;;;10.60;99.90;;;;;;5129870;27;20489;-81
2022/11/25 11:20:07;;;;;;;11.57;2.17;;;10.70;99.90;;;;;;5130010;27;20121;-81
2022/11/25 11:22:35;;;;;;;9.35;2.30;;;10.70;99.90;;;;;;5128681;27;20045;-81
2022/11/25 11:25:07;;;;;;;7.88;1.77;;;10.80;99.90;;;;;;5113261;27;20385;-80
2022/11/25 11:27:36;;;;;;;8.18;2.13;;;10.90;99.90;;;;;;5129239;27;20043;-81
2022/11/25 11:30:20;;;;;;;11.18;3.33;;;10.90;99.90;;;;;;5129883;27;20068;-81
2022/11/25 11:33:05;;;;;;;12.88;2.63;;;11.00;99.90;;;;;;5129397;27;20162;-81
2022/11/25 11:35:49;;;;;;;14.70;2.58;;;11.10;99.90;;;;;;5128878;27;20401;-81
2022/11/25 11:38:52;;;;;;;11.85;1.90;;;11.10;99.90;;;;;;5112859;27;20051;-81
2022/11/25 11:42:02;;;;;;;5.85;1.42;;;11.20;99.90;;;;;;5112042;27;20061;-81
2022/11/25 11:44:33;;;;;;;11.70;2.83;;;11.40;99.90;;;;;;5042630;28;20052;-80
2022/11/25 11:47:11;;;;;;;9.90;2.50;;;10.90;99.90;;;;;;5118456;27;20115;-81
2022/11/25 11:49:51;;;;;;;11.65;2.35;;;10.90;99.90;;;;;;5147835;27;20039;-80
2022/11/25 11:53:04;;;;;;;9.85;2.35;;;11.00;99.90;;;;;;5147272;27;20124;-80
2022/11/25 11:55:48;;;;;;;6.88;1.95;;;11.00;99.90;;;;;;5120935;27;20058;-80
2022/11/25 11:58:50;;;;;;;9.73;1.50;;;11.10;99.90;;;;;;5129018;27;20046;-80
2022/11/25 12:01:34;;;;;;;11.98;2.33;;;11.10;99.90;;;;;;5147055;27;20046;-80
2022/11/25 12:04:09;;;;;;;11.18;2.03;;;11.20;99.90;;;;;;5112080;27;20038;-80
2022/11/25 12:06:37;;;;;;;12.85;1.73;;;11.20;99.90;;;;;;5129224;27;20069;-80
2022/11/25 12:09:16;;;;;;;11.43;1.95;;;11.30;99.90;;;;;;5127753;27;20498;-80
2022/11/25 12:11:48;;;;;;;9.15;1.40;;;11.20;99.90;;;;;;5112552;27;20500;-79
2022/11/25 12:14:24;;;;;;;17.10;2.75;;;11.20;99.90;;;;;;5146921;27;20039;-79
2022/11/25 12:17:02;;;;;;;11.50;2.90;;;11.20;99.90;;;;;;5112547;27;20083;-80
2022/11/25 12:19:55;;;;;;;13.15;1.55;;;11.20;99.90;;;;;;5147635;27;20043;-80
2022/11/25 12:22:31;;;;;;;8.82;2.40;;;11.20;99.90;;;;;;5127830;27;20410;-79
2022/11/25 12:25:18;;;;;;;14.60;1.67;;;11.30;99.90;;;;;;5129685;27;20399;-80
2022/11/25 12:27:54;;;;;;;10.30;1.63;;;11.40;99.90;;;;;;5128853;27;20350;-80
2022/11/25 12:30:22;;;;;;;13.20;2.47;;;11.40;99.90;;;;;;5127777;27;20046;-80
2022/11/25 12:33:23;;;;;;;14.45;2.40;;;11.40;99.90;;;;;;5128351;27;20557;-80
2022/11/25 12:36:06;;;;;;;7.00;1.90;;;11.30;99.90;;;;;;5127823;27;20401;-80
2022/11/25 12:38:55;;;;;;;11.32;1.83;;;11.30;99.90;;;;;;5128333;27;20050;-80
2022/11/25 12:41:51;;;;;;;10.60;2.53;;;11.30;99.90;;;;;;5128436;27;20110;-80
2022/11/25 12:44:22;;;;;;;9.10;2.05;;;11.20;99.90;;;;;;5127612;27;20093;-80
2022/11/25 12:46:50;;;;;;;19.00;2.75;;;11.20;99.90;;;;;;5128434;27;20089;-80
2022/11/25 12:49:47;;;;;;;13.85;1.40;;;11.30;99.90;;;;;;5128189;27;20498;-81
2022/11/25 12:52:33;;;;;;;13.88;1.50;;;11.30;99.90;;;;;;5127448;27;20092;-80
2022/11/25 12:55:15;;;;;;;11.35;1.77;;;11.40;99.90;;;;;;5128361;27;20048;-80
2022/11/25 12:58:18;;;;;;;15.30;1.73;;;11.50;99.90;;;;;;5111246;27;20452;-80
2022/11/25 13:01:21;;;;;;;12.23;1.60;;;11.60;99.90;;;;;;5110435;27;20042;-80
2022/11/25 13:04:23;;;;;;;16.63;2.17;;;11.60;99.90;;;;;;5111129;27;20053;-82
2022/11/25 13:06:48;;;;;;;20.80;2.08;;;11.70;99.90;;;;;;5128205;27;20049;-81
2022/11/25 13:09:45;;;;;;;11.80;1.73;;;11.70;99.90;;;;;;5110144;27;20043;-82
2022/11/25 13:12:22;;;;;;;14.90;2.97;;;11.60;99.90;;;;;;5128382;27;20046;-81
2022/11/25 13:15:17;;;;;;;17.60;3.15;;;11.50;99.90;;;;;;5110451;27;20061;-84
2022/11/25 13:17:45;;;;;;;19.05;2.55;;;11.50;99.90;;;;;;5110385;27;20054;-83